Time;durP1;ratioP1;P1;durP2;ratioP2;P2;SDS_P1;SDS_P2;PMS_P1;PMS_P2;Temp;Humidity;BMP_temperature;BMP_pressure;BME280_temperature;BME280_humidity;BME280_pressure;Samples;Min_cycle;Max_cycle;Signal;HPM_P1;HPM_P2
2022/11/14 00:01:25;;;;;;;42.47;31.40;;;;;;;7.91;100.00;101873.09;4979121;28;20726;-54
2022/11/14 00:03:53;;;;;;;41.20;31.17;;;;;;;7.92;100.00;101869.63;4980123;28;20719;-53
2022/11/14 00:06:20;;;;;;;45.97;31.67;;;;;;;7.85;100.00;101860.72;4982108;28;20244;-53
2022/11/14 00:08:47;;;;;;;44.17;31.40;;;;;;;7.76;100.00;101867.44;4978174;28;20230;-53
2022/11/14 00:11:13;;;;;;;44.67;30.77;;;;;;;7.99;100.00;101858.50;4982868;28;20230;-54
2022/11/14 00:13:40;;;;;;;47.13;30.60;;;;;;;7.90;100.00;101866.09;4985708;28;20745;-54
2022/11/14 00:16:06;;;;;;;41.50;29.57;;;;;;;7.89;100.00;101857.34;4986928;28;20316;-54
2022/11/14 00:18:33;;;;;;;44.63;29.50;;;;;;;7.88;100.00;101850.34;4987656;28;20336;-53
2022/11/14 00:21:01;;;;;;;44.57;31.37;;;;;;;7.88;100.00;101852.97;4984442;28;20237;-54
2022/11/14 00:23:28;;;;;;;47.90;31.53;;;;;;;7.99;100.00;101849.78;4984666;28;20369;-53
2022/11/14 00:25:54;;;;;;;47.70;32.37;;;;;;;7.88;100.00;101846.88;4983263;28;20773;-53
2022/11/14 00:28:21;;;;;;;48.87;32.27;;;;;;;7.62;100.00;101851.38;4985285;28;20746;-53
2022/11/14 00:30:48;;;;;;;47.97;33.30;;;;;;;7.72;100.00;101847.25;4987562;28;20317;-53
2022/11/14 00:33:14;;;;;;;45.50;31.07;;;;;;;7.74;100.00;101835.13;4988133;28;20226;-54
2022/11/14 00:35:41;;;;;;;49.50;31.80;;;;;;;7.73;100.00;101841.22;4987389;28;20321;-53
2022/11/14 00:38:09;;;;;;;51.07;30.87;;;;;;;7.90;100.00;101845.19;4987958;28;20328;-54
2022/11/14 00:40:36;;;;;;;45.53;30.17;;;;;;;7.80;100.00;101833.59;4989256;28;20325;-53
2022/11/14 00:43:02;;;;;;;47.37;31.40;;;;;;;8.08;100.00;101830.00;4987986;28;20609;-53
2022/11/14 00:45:29;;;;;;;49.27;30.33;;;;;;;7.88;100.00;101833.78;4982890;28;20233;-54
2022/11/14 00:47:55;;;;;;;43.80;30.27;;;;;;;7.63;100.00;101834.84;4975498;28;20239;-52
2022/11/14 00:50:22;;;;;;;42.53;30.23;;;;;;;8.06;100.00;101828.16;4981545;28;20241;-55
2022/11/14 00:52:49;;;;;;;42.33;31.23;;;;;;;8.06;100.00;101828.16;4977348;28;20341;-53
2022/11/14 00:55:17;;;;;;;44.07;29.47;;;;;;;7.86;100.00;101817.16;4983982;28;20373;-52
2022/11/14 00:57:43;;;;;;;50.50;33.97;;;;;;;7.68;100.00;101827.09;4984941;28;20303;-54
2022/11/14 01:00:12;;;;;;;49.43;32.63;;;;;;;7.83;100.00;101817.09;4976091;28;20230;-54
2022/11/14 01:02:39;;;;;;;48.80;33.60;;;;;;;7.72;100.00;101818.50;4979557;28;20567;-53
2022/11/14 01:05:06;;;;;;;44.90;29.93;;;;;;;7.87;100.00;101812.00;4969363;28;20230;-53
2022/11/14 01:07:33;;;;;;;43.90;29.63;;;;;;;7.98;100.00;101806.16;4981768;28;20329;-54
2022/11/14 01:09:59;;;;;;;52.23;32.30;;;;;;;7.83;100.00;101807.53;4979248;28;20831;-54
2022/11/14 01:12:27;;;;;;;52.57;33.13;;;;;;;7.74;100.00;101801.16;4980415;28;20664;-53
2022/11/14 01:14:54;;;;;;;43.77;29.87;;;;;;;7.94;100.00;101802.59;4980610;28;20545;-53
2022/11/14 01:17:21;;;;;;;49.50;32.10;;;;;;;7.97;100.00;101799.16;4980903;28;20236;-54
2022/11/14 01:19:47;;;;;;;50.73;32.03;;;;;;;7.96;100.00;101803.50;4975919;28;20244;-53
2022/11/14 01:22:14;;;;;;;46.00;31.43;;;;;;;7.78;100.00;101787.31;4980829;28;20750;-52
2022/11/14 01:24:40;;;;;;;50.30;30.00;;;;;;;7.92;100.00;101785.97;4981959;28;20418;-53
2022/11/14 01:27:07;;;;;;;52.00;30.23;;;;;;;8.02;100.00;101787.09;4981244;28;20608;-53
2022/11/14 01:29:35;;;;;;;48.97;32.83;;;;;;;7.87;100.00;101785.84;4978733;28;20230;-53
2022/11/14 01:32:01;;;;;;;47.40;30.73;;;;;;;8.03;100.00;101778.41;4980377;28;20324;-55
2022/11/14 01:34:29;;;;;;;49.70;32.03;;;;;;;8.06;100.00;101781.97;4983426;28;20297;-54
2022/11/14 01:36:55;;;;;;;48.23;30.60;;;;;;;8.18;100.00;101773.59;4981647;28;20242;-53
2022/11/14 01:39:22;;;;;;;51.17;31.17;;;;;;;8.01;100.00;101775.75;4978151;28;20238;-54
2022/11/14 01:41:49;;;;;;;54.10;32.60;;;;;;;7.95;100.00;101770.34;4978271;28;20321;-53
2022/11/14 01:44:17;;;;;;;48.37;31.80;;;;;;;7.98;100.00;101770.44;4975499;28;20234;-53
2022/11/14 01:46:47;;;;;;;51.70;32.83;;;;;;;7.82;100.00;101757.78;4979969;28;20234;-53
2022/11/14 01:49:17;;;;;;;49.93;31.97;;;;;;;7.86;100.00;101764.88;4980337;28;20655;-53
2022/11/14 01:51:46;;;;;;;51.43;32.70;;;;;;;7.90;100.00;101761.53;4979326;28;20367;-53
2022/11/14 01:54:16;;;;;;;48.27;31.23;;;;;;;8.24;100.00;101755.41;4980041;28;20226;-53
2022/11/14 01:56:45;;;;;;;53.03;34.00;;;;;;;8.26;100.00;101751.09;4977593;28;20325;-53
2022/11/14 01:59:14;;;;;;;47.00;32.77;;;;;;;8.17;100.00;101749.97;4977051;28;20313;-53
2022/11/14 02:01:46;;;;;;;50.33;31.80;;;;;;;7.92;100.00;101746.75;4981240;28;20241;-53
2022/11/14 02:04:17;;;;;;;48.30;30.80;;;;;;;8.15;100.00;101751.69;4977622;28;20704;-53
2022/11/14 02:06:44;;;;;;;45.83;30.67;;;;;;;7.96;100.00;101740.72;4975951;28;20687;-53
2022/11/14 02:09:11;;;;;;;45.67;31.67;;;;;;;7.94;100.00;101738.94;4975628;28;20674;-53
2022/11/14 02:11:41;;;;;;;51.53;31.77;;;;;;;7.84;100.00;101737.81;4976436;28;20238;-53
2022/11/14 02:14:08;;;;;;;48.13;31.47;;;;;;;7.84;100.00;101737.81;4971747;28;20716;-52
2022/11/14 02:16:34;;;;;;;50.97;31.40;;;;;;;7.70;100.00;101727.00;4980477;28;20313;-53
2022/11/14 02:19:02;;;;;;;48.80;32.47;;;;;;;7.65;100.00;101729.50;4981192;28;20240;-55
2022/11/14 02:21:30;;;;;;;53.67;32.83;;;;;;;7.64;100.00;101722.47;4978676;28;20321;-53
2022/11/14 02:23:57;;;;;;;50.47;31.97;;;;;;;7.82;100.00;101723.81;4980238;28;20716;-52
2022/11/14 02:26:24;;;;;;;49.67;31.00;;;;;;;7.71;100.00;101720.03;4977498;28;20234;-53
2022/11/14 02:28:51;;;;;;;55.77;33.77;;;;;;;7.99;100.00;101714.66;4981054;28;20261;-53
2022/11/14 02:31:17;;;;;;;49.87;33.87;;;;;;;7.92;100.00;101717.97;4971520;28;20790;-53
2022/11/14 02:33:44;;;;;;;52.43;33.07;;;;;;;8.03;100.00;101713.91;4971438;28;20325;-54
2022/11/14 02:36:10;;;;;;;52.00;32.73;;;;;;;7.52;100.00;101711.72;4979225;28;20249;-53
2022/11/14 02:38:38;;;;;;;56.97;33.07;;;;;;;7.62;100.00;101712.84;4976591;28;20341;-54
2022/11/14 02:41:05;;;;;;;52.00;32.47;;;;;;;7.62;100.00;101711.13;4978717;28;20230;-53
2022/11/14 02:43:32;;;;;;;54.43;33.87;;;;;;;7.79;100.00;101705.41;4976520;28;20458;-53
2022/11/14 02:45:58;;;;;;;54.70;32.80;;;;;;;7.80;100.00;101702.00;4981791;28;20241;-53
2022/11/14 02:48:25;;;;;;;49.50;31.70;;;;;;;8.11;100.00;101699.31;4974551;28;20610;-53
2022/11/14 02:50:53;;;;;;;47.27;32.40;;;;;;;8.02;100.00;101693.81;4978494;28;20317;-54
2022/11/14 02:53:20;;;;;;;49.57;31.13;;;;;;;8.08;100.00;101693.09;4979109;28;20238;-53
2022/11/14 02:55:48;;;;;;;53.80;32.07;;;;;;;7.82;100.00;101692.44;4979970;28;20321;-54
2022/11/14 02:58:14;;;;;;;53.77;31.60;;;;;;;7.81;100.00;101694.16;4976923;28;20238;-53
2022/11/14 03:00:41;;;;;;;44.93;30.57;;;;;;;7.69;100.00;101691.25;4979572;28;20313;-53
2022/11/14 03:03:08;;;;;;;51.30;32.90;;;;;;;7.80;100.00;101686.31;4976335;28;20234;-53
2022/11/14 03:05:34;;;;;;;54.37;33.40;;;;;;;7.87;100.00;101686.50;4977861;28;20234;-53
2022/11/14 03:08:01;;;;;;;55.40;32.10;;;;;;;7.78;100.00;101687.97;4978932;28;20720;-53
2022/11/14 03:10:27;;;;;;;51.10;29.43;;;;;;;8.05;100.00;101670.38;4979595;28;20313;-53
2022/11/14 03:12:56;;;;;;;46.57;31.13;;;;;;;8.34;100.00;101670.16;4970793;28;20318;-53
2022/11/14 03:15:23;;;;;;;50.93;30.63;;;;;;;8.13;100.00;101671.44;4974317;28;20333;-53
2022/11/14 03:17:50;;;;;;;48.03;31.83;;;;;;;7.86;100.00;101670.75;4978158;28;20225;-53
2022/11/14 03:20:17;;;;;;;54.00;31.53;;;;;;;7.65;100.00;101673.69;4977437;28;20231;-53
2022/11/14 03:22:43;;;;;;;53.53;33.00;;;;;;;7.61;100.00;101667.50;4975572;28;20250;-53
2022/11/14 03:25:10;;;;;;;52.23;32.33;;;;;;;7.32;100.00;101676.31;4977477;28;20237;-53
2022/11/14 03:27:36;;;;;;;47.67;31.93;;;;;;;7.16;100.00;101672.41;4978866;28;20245;-55
2022/11/14 03:30:05;;;;;;;54.87;32.00;;;;;;;7.43;100.00;101659.19;4977286;28;22185;-53
2022/11/14 03:32:32;;;;;;;48.17;30.23;;;;;;;7.62;100.00;101669.28;4976195;28;20238;-54
2022/11/14 03:34:58;;;;;;;55.73;32.57;;;;;;;7.18;100.00;101661.13;4973856;28;20238;-58
2022/11/14 03:37:25;;;;;;;54.33;33.30;;;;;;;7.45;100.00;101657.50;4981230;28;20230;-52
2022/11/14 03:39:52;;;;;;;52.83;30.73;;;;;;;7.73;100.00;101653.00;4980158;28;20242;-53
2022/11/14 03:42:18;;;;;;;53.13;31.97;;;;;;;8.07;100.00;101636.41;4980504;28;20316;-53
2022/11/14 03:44:45;;;;;;;51.07;31.87;;;;;;;7.77;100.00;101644.41;4978954;28;20233;-53
2022/11/14 03:47:13;;;;;;;48.67;29.63;;;;;;;7.71;100.00;101645.13;4975822;28;20603;-54
2022/11/14 03:49:39;;;;;;;51.20;28.43;;;;;;;7.83;100.00;101641.94;4979283;28;20241;-54
2022/11/14 03:52:06;;;;;;;49.73;32.47;;;;;;;7.45;100.00;101636.63;4977480;28;20650;-53
2022/11/14 03:54:33;;;;;;;48.30;30.37;;;;;;;7.83;100.00;101634.97;4980658;28;20429;-53
2022/11/14 03:56:59;;;;;;;54.73;29.63;;;;;;;7.59;100.00;101635.25;4980919;28;20261;-53
2022/11/14 03:59:26;;;;;;;55.57;31.13;;;;;;;8.18;100.00;101634.03;4977736;28;20244;-53
2022/11/14 04:01:52;;;;;;;49.93;31.67;;;;;;;8.04;100.00;101634.63;4977455;28;20966;-53
2022/11/14 04:04:20;;;;;;;50.67;30.97;;;;;;;7.97;100.00;101639.63;4977763;28;20390;-52
2022/11/14 04:06:47;;;;;;;52.10;31.10;;;;;;;7.74;100.00;101628.63;4976445;28;20238;-54
2022/11/14 04:09:14;;;;;;;53.57;32.50;;;;;;;7.49;100.00;101632.34;4982888;28;20307;-54
2022/11/14 04:11:40;;;;;;;50.87;32.37;;;;;;;7.56;100.00;101622.09;4981202;28;20241;-53
2022/11/14 04:14:07;;;;;;;47.17;29.00;;;;;;;8.01;100.00;101621.47;4981786;28;20253;-54
2022/11/14 04:16:33;;;;;;;59.20;30.97;;;;;;;7.98;100.00;101607.44;4979785;28;20238;-53
2022/11/14 04:19:00;;;;;;;50.17;28.60;;;;;;;8.04;100.00;101613.69;4972105;28;20312;-53
2022/11/14 04:21:28;;;;;;;52.93;31.83;;;;;;;7.92;100.00;101615.13;4978865;28;20305;-54
2022/11/14 04:23:55;;;;;;;57.90;33.43;;;;;;;7.50;100.00;101619.31;4977055;28;20355;-53
2022/11/14 04:26:22;;;;;;;54.60;31.40;;;;;;;7.51;100.00;101615.88;4975660;28;20253;-53
2022/11/14 04:28:49;;;;;;;55.00;32.23;;;;;;;7.18;100.00;101621.97;4969867;28;20226;-53
2022/11/14 04:31:17;;;;;;;55.60;30.67;;;;;;;7.54;100.00;101615.94;4980247;28;20234;-54
2022/11/14 04:33:44;;;;;;;54.73;33.17;;;;;;;7.26;100.00;101618.66;4979867;28;20241;-54
2022/11/14 04:36:10;;;;;;;60.43;31.13;;;;;;;7.02;100.00;101603.22;4976616;28;20245;-54
2022/11/14 04:38:39;;;;;;;54.50;31.90;;;;;;;7.52;100.00;101609.81;4981826;28;20239;-53
2022/11/14 04:41:06;;;;;;;52.40;31.63;;;;;;;7.52;100.00;101606.31;4982173;28;20723;-54
2022/11/14 04:43:33;;;;;;;50.77;30.63;;;;;;;7.57;100.00;101596.84;4979786;28;20244;-53
2022/11/14 04:46:00;;;;;;;57.47;30.37;;;;;;;7.59;100.00;101603.00;4984344;28;20238;-54
2022/11/14 04:48:27;;;;;;;51.03;31.90;;;;;;;7.58;100.00;101607.34;4990435;28;20230;-54
2022/11/14 04:50:53;;;;;;;55.57;33.17;;;;;;;7.57;100.00;101599.44;4988972;28;20332;-53
2022/11/14 04:53:20;;;;;;;54.50;32.63;;;;;;;7.61;100.00;101602.16;4990450;28;20222;-53
2022/11/14 04:55:48;;;;;;;56.40;32.30;;;;;;;7.56;100.00;101598.56;4990641;28;20680;-53
2022/11/14 04:58:15;;;;;;;50.73;29.57;;;;;;;7.65;100.00;101593.59;4990213;28;20270;-54
2022/11/14 05:00:42;;;;;;;50.13;31.83;;;;;;;7.37;100.00;101596.31;4987138;28;20257;-52
2022/11/14 05:03:09;;;;;;;51.53;30.37;;;;;;;7.62;100.00;101592.63;4986498;28;20623;-54
2022/11/14 05:05:36;;;;;;;52.60;31.60;;;;;;;7.72;100.00;101586.78;4984357;28;20951;-53
2022/11/14 05:08:03;;;;;;;56.03;31.50;;;;;;;7.60;100.00;101586.47;4984856;28;20234;-54
2022/11/14 05:10:30;;;;;;;57.23;32.97;;;;;;;7.29;100.00;101590.03;4989853;28;20312;-53
2022/11/14 05:12:58;;;;;;;55.33;29.97;;;;;;;7.68;100.00;101581.41;4990548;28;20233;-54
2022/11/14 05:15:25;;;;;;;54.50;31.33;;;;;;;7.77;100.00;101582.53;4988035;28;20230;-53
2022/11/14 05:17:52;;;;;;;54.73;32.23;;;;;;;7.63;100.00;101594.38;4978753;28;20657;-54
2022/11/14 05:20:19;;;;;;;58.03;33.97;;;;;;;7.64;100.00;101597.03;4983940;28;20230;-61
2022/11/14 05:22:46;;;;;;;52.47;31.50;;;;;;;7.52;100.00;101591.50;4979880;28;20238;-53
2022/11/14 05:25:13;;;;;;;62.10;32.33;;;;;;;7.41;100.00;101582.53;4984085;28;20227;-53
2022/11/14 05:27:40;;;;;;;50.93;30.27;;;;;;;7.71;100.00;101582.38;4981779;28;20230;-53
2022/11/14 05:30:10;;;;;;;55.60;30.60;;;;;;;8.24;100.00;101567.03;4985110;28;20249;-54
2022/11/14 05:32:37;;;;;;;55.47;33.27;;;;;;;7.76;100.00;101569.44;4980298;28;20268;-52
2022/11/14 05:35:05;;;;;;;57.40;32.70;;;;;;;7.78;100.00;101572.97;4980710;28;20238;-53
2022/11/14 05:37:32;;;;;;;50.80;29.60;;;;;;;7.63;100.00;101569.13;4984759;28;20818;-53
2022/11/14 05:39:59;;;;;;;56.80;32.77;;;;;;;7.29;100.00;101571.75;4979791;28;20234;-53
2022/11/14 05:42:27;;;;;;;52.50;30.43;;;;;;;7.51;100.00;101567.94;4985472;28;20238;-54
2022/11/14 05:44:54;;;;;;;50.10;29.90;;;;;;;7.50;100.00;101567.06;4981572;28;20239;-54
2022/11/14 05:47:22;;;;;;;51.77;31.00;;;;;;;7.22;100.00;101567.19;4984954;28;20242;-55
2022/11/14 05:49:49;;;;;;;52.17;32.20;;;;;;;7.05;100.00;101567.63;4978075;28;20233;-53
2022/11/14 05:52:16;;;;;;;57.07;31.03;;;;;;;7.18;100.00;101572.34;4987788;28;20234;-56
2022/11/14 05:54:43;;;;;;;55.40;31.37;;;;;;;7.12;100.00;101580.00;4983871;28;20253;-53
2022/11/14 05:57:09;;;;;;;57.27;31.57;;;;;;;7.30;100.00;101563.06;4980866;28;20234;-55
2022/11/14 05:59:36;;;;;;;55.20;31.03;;;;;;;7.32;100.00;101566.59;4987973;28;20233;-54
2022/11/14 06:02:03;;;;;;;58.03;30.43;;;;;;;7.39;100.00;101568.53;4980647;28;20353;-55
2022/11/14 06:04:32;;;;;;;54.87;31.47;;;;;;;7.21;100.00;101566.31;4987191;28;20237;-52
2022/11/14 06:06:59;;;;;;;53.43;31.23;;;;;;;7.39;100.00;101566.78;4978481;28;20932;-53
2022/11/14 06:09:25;;;;;;;54.37;30.30;;;;;;;7.33;100.00;101569.22;4978794;28;21233;-55
2022/11/14 06:11:52;;;;;;;60.33;30.93;;;;;;;7.30;100.00;101568.28;4979920;28;20340;-54
2022/11/14 06:14:19;;;;;;;52.33;31.13;;;;;;;7.84;100.00;101562.66;4982023;28;20226;-55
2022/11/14 06:16:46;;;;;;;50.20;30.67;;;;;;;7.82;100.00;101559.09;4978948;28;20584;-54
2022/11/14 06:19:12;;;;;;;56.63;32.83;;;;;;;7.94;100.00;101555.91;4975174;28;20903;-55
2022/11/14 06:21:41;;;;;;;52.03;30.47;;;;;;;7.58;100.00;101570.75;4979154;28;20241;-57
2022/11/14 06:24:08;;;;;;;45.20;29.27;;;;;;;7.59;100.00;101562.06;4977096;28;20321;-53
2022/11/14 06:26:34;;;;;;;52.70;29.70;;;;;;;7.45;100.00;101567.81;4981653;28;20237;-54
2022/11/14 06:29:01;;;;;;;51.83;29.27;;;;;;;7.64;100.00;101570.00;4981295;28;20974;-53
2022/11/14 06:31:28;;;;;;;59.20;34.57;;;;;;;7.33;100.00;101568.34;4982960;28;20962;-54
2022/11/14 06:33:56;;;;;;;58.53;32.83;;;;;;;7.15;100.00;101574.88;4983212;28;20265;-54
2022/11/14 06:36:23;;;;;;;48.70;28.93;;;;;;;7.75;100.00;101554.59;4979433;28;20230;-54
2022/11/14 06:38:51;;;;;;;60.73;31.33;;;;;;;7.40;100.00;101557.22;4983985;28;20238;-55
2022/11/14 06:41:20;;;;;;;50.60;30.03;;;;;;;7.57;100.00;101560.25;4983753;28;20330;-53
2022/11/14 06:43:48;;;;;;;52.70;32.70;;;;;;;7.70;100.00;101556.22;4981862;28;20331;-54
2022/11/14 06:46:17;;;;;;;50.93;30.70;;;;;;;7.45;100.00;101553.00;4983278;28;20466;-52
2022/11/14 06:48:45;;;;;;;57.43;32.07;;;;;;;7.43;100.00;101557.28;4974681;28;20231;-53
2022/11/14 06:51:13;;;;;;;57.90;31.17;;;;;;;7.54;100.00;101554.94;4974868;28;20227;-54
2022/11/14 06:53:40;;;;;;;53.13;30.87;;;;;;;7.79;100.00;101557.34;4978800;28;20241;-55
2022/11/14 06:56:10;;;;;;;55.50;31.63;;;;;;;7.46;100.00;101554.75;4975507;28;20245;-53
2022/11/14 06:58:39;;;;;;;55.87;31.57;;;;;;;7.33;100.00;101563.13;4975020;28;20242;-53
2022/11/14 07:01:07;;;;;;;53.73;33.43;;;;;;;7.34;100.00;101557.09;4974957;28;20414;-53
2022/11/14 07:03:34;;;;;;;51.87;29.57;;;;;;;7.48;100.00;101560.94;4975849;28;20245;-54
2022/11/14 07:06:01;;;;;;;53.10;30.37;;;;;;;7.38;100.00;101556.31;4974177;28;20250;-53
2022/11/14 07:08:29;;;;;;;52.63;31.07;;;;;;;7.51;100.00;101563.63;4976593;28;20759;-53
2022/11/14 07:11:01;;;;;;;61.13;33.00;;;;;;;7.47;100.00;101561.75;4976005;28;20612;-54
2022/11/14 07:13:30;;;;;;;55.67;31.20;;;;;;;7.46;100.00;101562.59;4980454;28;20255;-52
2022/11/14 07:15:56;;;;;;;56.53;32.97;;;;;;;7.64;100.00;101563.06;4976262;28;20659;-53
2022/11/14 07:18:23;;;;;;;53.50;31.47;;;;;;;7.62;100.00;101572.59;4974732;28;20226;-53
2022/11/14 07:20:50;;;;;;;54.23;33.57;;;;;;;7.64;100.00;101575.25;4975162;28;20386;-54
2022/11/14 07:23:17;;;;;;;55.80;32.30;;;;;;;7.44;100.00;101579.06;4978369;28;20244;-53
2022/11/14 07:25:44;;;;;;;52.80;31.43;;;;;;;7.80;100.00;101566.06;4976387;28;20332;-52
2022/11/14 07:28:10;;;;;;;58.67;31.30;;;;;;;7.50;100.00;101572.28;4974217;28;20240;-55
2022/11/14 07:30:39;;;;;;;53.77;31.47;;;;;;;7.54;100.00;101566.28;4982310;28;20257;-53
2022/11/14 07:33:06;;;;;;;52.47;30.97;;;;;;;7.29;100.00;101561.28;4981368;28;20264;-53
2022/11/14 07:35:33;;;;;;;57.33;31.87;;;;;;;7.51;100.00;101553.16;4980997;28;20761;-53
2022/11/14 07:38:04;;;;;;;59.03;33.50;;;;;;;7.46;100.00;101565.22;4981137;28;20238;-53
2022/11/14 07:40:31;;;;;;;52.73;30.50;;;;;;;7.61;100.00;101544.69;4982663;28;20250;-52
2022/11/14 07:42:59;;;;;;;64.70;32.47;;;;;;;7.56;100.00;101546.31;4983142;28;20793;-53
2022/11/14 07:45:27;;;;;;;55.40;31.57;;;;;;;7.49;100.00;101543.53;4976617;28;20264;-53
2022/11/14 07:47:57;;;;;;;52.60;30.63;;;;;;;7.41;100.00;101540.72;4976201;28;20240;-53
2022/11/14 07:50:24;;;;;;;54.33;30.37;;;;;;;7.80;100.00;101543.41;4976075;28;20236;-53
2022/11/14 07:52:51;;;;;;;60.00;31.10;;;;;;;7.59;100.00;101541.16;4977863;28;20226;-53
2022/11/14 07:55:18;;;;;;;55.90;31.83;;;;;;;7.57;100.00;101535.00;4981660;28;20260;-54
2022/11/14 07:57:46;;;;;;;49.63;29.03;;;;;;;7.89;100.00;101535.75;4981103;28;20261;-54
2022/11/14 08:00:15;;;;;;;48.63;30.23;;;;;;;7.76;100.00;101544.19;4978861;28;20308;-53
2022/11/14 08:02:42;;;;;;;55.13;29.03;;;;;;;7.71;100.00;101537.06;4981608;28;20233;-55
2022/11/14 08:05:10;;;;;;;58.80;31.37;;;;;;;7.68;100.00;101537.00;4976381;28;20233;-54
2022/11/14 08:07:38;;;;;;;51.73;30.93;;;;;;;7.45;100.00;101539.94;4977959;28;20232;-54
2022/11/14 08:10:05;;;;;;;50.47;29.57;;;;;;;7.72;100.00;101541.44;4980631;28;20234;-52
2022/11/14 08:12:32;;;;;;;54.50;30.10;;;;;;;7.71;100.00;101524.00;4979810;28;20288;-54
2022/11/14 08:14:59;;;;;;;54.63;30.40;;;;;;;7.59;100.00;101533.31;4982036;28;20703;-53
2022/11/14 08:17:26;;;;;;;57.73;30.80;;;;;;;7.88;100.00;101538.34;4981647;28;20254;-55
2022/11/14 08:19:53;;;;;;;58.87;30.63;;;;;;;7.81;100.00;101546.91;4977065;28;20308;-54
2022/11/14 08:22:21;;;;;;;51.70;30.50;;;;;;;7.54;100.00;101550.59;4975311;28;20234;-54
2022/11/14 08:24:48;;;;;;;50.57;26.93;;;;;;;7.69;100.00;101546.59;4978926;28;20248;-54
2022/11/14 08:27:15;;;;;;;48.73;28.20;;;;;;;7.76;100.00;101532.84;4980000;28;20272;-53
2022/11/14 08:29:42;;;;;;;57.20;29.63;;;;;;;7.67;100.00;101532.63;4979666;28;20896;-53
2022/11/14 08:32:10;;;;;;;51.43;29.40;;;;;;;7.70;100.00;101538.81;4979809;28;20226;-53
2022/11/14 08:34:37;;;;;;;53.67;30.17;;;;;;;7.85;100.00;101540.88;4979527;28;20237;-54
2022/11/14 08:37:04;;;;;;;48.93;29.17;;;;;;;7.63;100.00;101527.31;4980812;28;20261;-53
2022/11/14 08:39:32;;;;;;;55.67;30.07;;;;;;;8.23;100.00;101531.28;4978195;28;20226;-54
2022/11/14 08:41:59;;;;;;;51.07;30.23;;;;;;;7.94;100.00;101533.25;4974067;28;20237;-53
2022/11/14 08:44:26;;;;;;;49.80;29.40;;;;;;;8.02;100.00;101533.44;4978359;28;20314;-53
2022/11/14 08:46:53;;;;;;;49.67;30.10;;;;;;;7.81;100.00;101528.59;4977156;28;20234;-53
2022/11/14 08:49:20;;;;;;;45.50;27.03;;;;;;;8.12;100.00;101525.81;4973430;28;20233;-54
2022/11/14 08:51:47;;;;;;;49.00;28.00;;;;;;;8.22;100.00;101523.41;4981366;28;20237;-53
2022/11/14 08:54:14;;;;;;;52.47;27.80;;;;;;;8.19;100.00;101518.13;4978883;28;20237;-54
2022/11/14 08:56:42;;;;;;;53.87;30.50;;;;;;;7.98;100.00;101522.03;4981044;28;20241;-54
2022/11/14 08:59:09;;;;;;;53.50;30.13;;;;;;;8.08;100.00;101521.38;4980756;28;20233;-53
2022/11/14 09:01:36;;;;;;;51.17;29.73;;;;;;;8.14;100.00;101531.06;4977808;28;20242;-53
2022/11/14 09:04:03;;;;;;;48.37;28.60;;;;;;;8.12;100.00;101522.31;4980636;28;20249;-53
2022/11/14 09:06:30;;;;;;;46.87;28.30;;;;;;;8.01;100.00;101523.81;4976229;28;20245;-54
2022/11/14 09:08:58;;;;;;;51.17;29.97;;;;;;;8.08;100.00;101524.00;4977721;28;20252;-52
2022/11/14 09:11:24;;;;;;;50.87;27.93;;;;;;;8.19;100.00;101512.88;4974668;28;20253;-54
2022/11/14 09:13:53;;;;;;;50.23;30.07;;;;;;;8.31;100.00;101519.22;4965901;28;20320;-55
2022/11/14 09:16:20;;;;;;;47.53;27.37;;;;;;;8.25;100.00;101511.28;4973323;28;20237;-54
2022/11/14 09:18:47;;;;;;;55.23;27.03;;;;;;;8.29;100.00;101505.25;4975304;28;20240;-53
2022/11/14 09:21:14;;;;;;;51.03;29.27;;;;;;;8.10;100.00;101498.72;4972506;28;20241;-54
2022/11/14 09:23:41;;;;;;;47.27;28.30;;;;;;;8.09;100.00;101504.81;4979460;28;20324;-53
2022/11/14 09:26:09;;;;;;;45.07;26.27;;;;;;;8.33;100.00;101500.97;4972289;28;20404;-53
2022/11/14 09:28:36;;;;;;;47.80;26.37;;;;;;;8.44;100.00;101504.72;4976569;28;20229;-53
2022/11/14 09:31:06;;;;;;;48.00;26.93;;;;;;;8.43;100.00;101502.94;4977467;28;20234;-53
2022/11/14 09:33:33;;;;;;;52.87;29.87;;;;;;;8.31;100.00;101503.53;4973628;28;20289;-52
2022/11/14 09:36:02;;;;;;;51.37;29.23;;;;;;;8.59;100.00;101509.34;4969879;28;20246;-55
2022/11/14 09:38:29;;;;;;;45.17;27.10;;;;;;;8.43;100.00;101515.16;4982552;28;20234;-53
2022/11/14 09:41:04;;;;;;;46.70;26.33;;;;;;;8.47;100.00;101514.38;4976503;28;20666;-54
2022/11/14 09:43:43;;;;;;;45.87;26.37;;;;;;;8.39;100.00;101511.59;4974647;28;20316;-55
2022/11/14 09:46:18;;;;;;;44.40;25.70;;;;;;;8.77;100.00;101519.28;4975051;28;20316;-54
2022/11/14 09:48:46;;;;;;;47.03;28.03;;;;;;;8.51;100.00;101510.94;4976233;28;20229;-53
2022/11/14 09:51:16;;;;;;;39.80;26.37;;;;;;;8.72;100.00;101511.38;4976139;28;20313;-56
2022/11/14 09:53:48;;;;;;;47.50;27.13;;;;;;;8.43;100.00;101508.19;4981041;28;20233;-53
2022/11/14 09:56:18;;;;;;;48.30;27.00;;;;;;;8.63;100.00;101499.81;4977014;28;20252;-54
2022/11/14 09:58:45;;;;;;;46.63;26.30;;;;;;;8.36;100.00;101491.44;4974170;28;20325;-55
2022/11/14 10:01:18;;;;;;;43.93;25.83;;;;;;;8.65;100.00;101485.06;4969240;28;20226;-53
2022/11/14 10:03:51;;;;;;;45.03;26.43;;;;;;;8.74;100.00;101488.72;4973228;28;20234;-53
2022/11/14 10:06:24;;;;;;;40.30;24.00;;;;;;;8.73;100.00;101475.59;4970347;28;20227;-54
2022/11/14 10:09:03;;;;;;;42.57;26.00;;;;;;;8.74;100.00;101475.63;4969792;28;20238;-54
2022/11/14 10:11:35;;;;;;;42.00;24.53;;;;;;;8.81;100.00;101474.03;4978890;28;20802;-55
2022/11/14 10:14:19;;;;;;;41.07;24.73;;;;;;;8.90;100.00;101468.03;4975281;28;20229;-54
2022/11/14 10:16:53;;;;;;;42.40;23.97;;;;;;;9.13;100.00;101469.34;4981826;28;20230;-54
2022/11/14 10:19:23;;;;;;;40.73;24.03;;;;;;;9.12;100.00;101459.69;4970858;28;20613;-53
2022/11/14 10:21:59;;;;;;;38.77;23.10;;;;;;;9.27;100.00;101459.09;4983372;28;20879;-55
2022/11/14 10:24:40;;;;;;;40.03;24.97;;;;;;;9.34;100.00;101460.94;4975783;28;20233;-54
2022/11/14 10:27:10;;;;;;;35.77;23.67;;;;;;;9.38;100.00;101460.13;4977921;28;20276;-54
2022/11/14 10:29:52;;;;;;;41.97;24.70;;;;;;;9.45;100.00;101464.59;4978556;28;20322;-54
2022/11/14 10:32:28;;;;;;;38.20;23.53;;;;;;;9.32;100.00;101452.16;4976462;28;20222;-54
2022/11/14 10:35:00;;;;;;;39.13;24.27;;;;;;;9.44;100.00;101457.59;4975656;28;20230;-53
2022/11/14 10:37:31;;;;;;;34.13;22.93;;;;;;;9.51;100.00;101446.34;4973911;28;20232;-54
2022/11/14 10:40:04;;;;;;;37.67;23.00;;;;;;;9.68;100.00;101436.09;4977009;28;20764;-52
2022/11/14 10:42:34;;;;;;;39.17;23.53;;;;;;;9.57;98.94;101437.69;4982695;28;20277;-53
2022/11/14 10:45:05;;;;;;;39.53;22.57;;;;;;;9.63;100.00;101440.41;4978894;28;20320;-53
2022/11/14 10:47:38;;;;;;;35.03;23.27;;;;;;;9.64;99.89;101443.88;4976230;28;20262;-53
2022/11/14 10:50:15;;;;;;;34.73;22.90;;;;;;;9.63;100.00;101431.66;4978255;28;20613;-53
2022/11/14 10:52:42;;;;;;;37.63;23.40;;;;;;;9.84;100.00;101428.44;4977449;28;20638;-54
2022/11/14 10:55:14;;;;;;;36.50;23.57;;;;;;;9.75;99.33;101418.69;4982320;28;20312;-54
2022/11/14 10:57:45;;;;;;;38.67;24.43;;;;;;;9.65;98.99;101416.81;4980974;28;20248;-53
2022/11/14 11:00:14;;;;;;;39.90;24.43;;;;;;;9.81;97.65;101421.41;4977930;28;20320;-53
2022/11/14 11:02:50;;;;;;;42.10;25.13;;;;;;;9.80;98.10;101419.66;4974260;28;20234;-53
2022/11/14 11:05:19;;;;;;;39.03;25.47;;;;;;;9.82;98.07;101417.91;4977933;28;20226;-53
2022/11/14 11:13:32;;;;;;;37.17;23.40;;;;;;;9.68;100.00;101409.88;4977181;28;20735;-53
2022/11/14 11:16:01;;;;;;;35.53;24.53;;;;;;;9.74;100.00;101420.44;4978702;28;20756;-55
2022/11/14 11:18:31;;;;;;;41.57;25.87;;;;;;;9.74;100.00;101409.06;4979096;28;20226;-53